QLD 190/489 노미네이션 closed

posted Jul 30, 2019

어제 오픈되었다고 공지를 해 드렸는데 하루만에 바로 닫혔습니다. 얼마전 SA 그리고 NSW의 일부지역(489)을 포함해서 이번에도 순식간에 closed가 되었습니다. 189가 이전보다 어려워진 관계로 더욱 더 많은 사람들이 주정부 노미네이션을 보고 있고 이러한 수요를 주정부 노미네이션 쿼터가 받쳐주지를 못하는 것 같습니다. 타지역보다 노미네이션 조건이 수월한 것도 한 몫을 한 것 같습니다.

 

Although Business and Skilled Migration Queensland opened its Skilled Program yesterday, due to unprecendented demand the program has been temporarily closed.

 

Expressions of interest (EOI) submitted for SkillSelect after 5:00pm AEST 30 July 2019 will not be considered at this time.

 

EOI submitted from 29-30 July 2019 (5:00pm AEST) will be accepted and considered over the coming months.

 

Due to this demand, it is unlikely that the subclass 489 program will reopen (for skilled applicants) due to the closure for nominations on 10 September 2019 (to be replaced by the new subclass 491 Skilled Work Regional (Provisional) visa).

 

The subclass 190 program will reopen in due course, and BSMQ will publish the re-opening date via our homepage and on social media channels.


List of Articles
번호 제목 날짜 조회 수
공지 댓글 추가 - New Skilled Regional Visa - 491, 494, 191 - 11월16일 시행 1 2019.04.10 1368
공지 2019-2020 Federal Budget Update 2019.04.03 591
공지 2019-2020 이민쿼터, New regional provisional visa 2019.03.25 892
공지 이민법이 강화된 이후의 유학이민 2018.07.13 1801
공지 대행료 최저가격 보장해 드립니다 2017.06.28 1078
공지 IELTS 외 각 시험별 점수표 2017.06.27 1224
공지 각종 직업군리스트 (주정부 노미네이션 포함) 2017.06.27 3329
공지 이전 공지사항 보기 (2006년 ~ 2017년 6월) 2017.06.27 297
248 SkillSelect 8월 라운드 결과 (11 August 2019) new 2019.08.23 9
247 187 RSMS 승인 (DE, Pastrycook) new 2019.08.23 10
246 888 투자비자 승인 2019.08.02 93
» QLD 190/489 노미네이션 closed 2019.07.30 119
244 489 노미네이션 승인 (TAS, Accountant) 2019.07.30 84
243 801 파트너비자 승인 2019.07.30 41
242 QLD 190/489 노미네이션 오픈 2019.07.29 106
241 SkillSelect 7월 라운드 결과 (11 July 2019) 2019.07.22 128
240 190 NSW 직업군리스트 발표 2019.07.18 188
239 시민권 승인 2019.07.18 62
238 시민권 승인 2019.07.18 38
237 309/100 파트너비자 승인 2019.07.15 61
236 시민권 승인 2019.07.11 70
235 시민권 승인 2019.07.11 67
234 Job Ready Program 2-4단계 변경 2019.07.05 271
233 Transitional Arrangements - 489 to 491 2019.07.05 357
232 NSW 489 업데이트 2019.07.04 380
231 143 기여제 부모비자 승인 2019.07.02 89
230 887 영주권 승인 2019.07.02 85
229 SA 노미네이션 7월3일 오픈 2019.07.02 299
Board Pagination Prev 1 2 3 4 5 6 7 8 9 10 ... 13 Next
/ 13